sensor_id;sensor_type;location;lat;lon;timestamp;pressure;altitude;pressure_sealevel;temperature;humidity
5952;BME280;3001;42.622;23.194;2023-09-08T00:01:59;91819.19;;;21.48;78.02
5952;BME280;3001;42.622;23.194;2023-09-08T00:04:26;91823.69;;;21.47;76.49
5952;BME280;3001;42.622;23.194;2023-09-08T00:06:53;91821.28;;;21.61;75.52
5952;BME280;3001;42.622;23.194;2023-09-08T00:09:21;91824.06;;;21.46;77.47
5952;BME280;3001;42.622;23.194;2023-09-08T00:11:47;91812.38;;;21.47;77.53
5952;BME280;3001;42.622;23.194;2023-09-08T00:14:14;91819.53;;;21.46;75.55
5952;BME280;3001;42.622;23.194;2023-09-08T00:16:41;91822.41;;;21.38;74.21
5952;BME280;3001;42.622;23.194;2023-09-08T00:19:09;91813.81;;;21.44;74.49
5952;BME280;3001;42.622;23.194;2023-09-08T00:21:36;91812.31;;;21.43;74.87
5952;BME280;3001;42.622;23.194;2023-09-08T00:24:05;91809.34;;;21.48;74.48
5952;BME280;3001;42.622;23.194;2023-09-08T00:26:33;91813.00;;;21.40;74.30
5952;BME280;3001;42.622;23.194;2023-09-08T00:29:00;91800.63;;;21.44;72.19
5952;BME280;3001;42.622;23.194;2023-09-08T00:31:26;91809.59;;;21.40;72.67
5952;BME280;3001;42.622;23.194;2023-09-08T00:33:53;91799.50;;;21.45;72.93
5952;BME280;3001;42.622;23.194;2023-09-08T00:36:20;91803.56;;;21.39;72.99
5952;BME280;3001;42.622;23.194;2023-09-08T00:38:46;91801.63;;;21.36;72.18
5952;BME280;3001;42.622;23.194;2023-09-08T00:41:13;91801.66;;;21.40;73.70
5952;BME280;3001;42.622;23.194;2023-09-08T00:43:41;91799.44;;;21.42;72.89
5952;BME280;3001;42.622;23.194;2023-09-08T00:46:08;91789.94;;;21.37;71.87
5952;BME280;3001;42.622;23.194;2023-09-08T00:48:36;91800.94;;;21.43;72.41
5952;BME280;3001;42.622;23.194;2023-09-08T00:51:03;91793.78;;;21.43;72.25
5952;BME280;3001;42.622;23.194;2023-09-08T00:53:30;91795.84;;;21.53;72.48
5952;BME280;3001;42.622;23.194;2023-09-08T00:55:58;91791.00;;;21.59;73.36
5952;BME280;3001;42.622;23.194;2023-09-08T00:58:25;91802.66;;;21.54;70.93
5952;BME280;3001;42.622;23.194;2023-09-08T01:00:53;91800.31;;;21.49;71.73
5952;BME280;3001;42.622;23.194;2023-09-08T01:03:22;91806.00;;;21.51;71.69
5952;BME280;3001;42.622;23.194;2023-09-08T01:05:49;91807.13;;;21.50;70.45
5952;BME280;3001;42.622;23.194;2023-09-08T01:08:16;91809.81;;;21.54;71.77
5952;BME280;3001;42.622;23.194;2023-09-08T01:10:44;91813.19;;;21.51;72.52
5952;BME280;3001;42.622;23.194;2023-09-08T01:13:11;91810.88;;;21.49;72.87
5952;BME280;3001;42.622;23.194;2023-09-08T01:15:38;91804.94;;;21.33;73.78
5952;BME280;3001;42.622;23.194;2023-09-08T01:18:06;91805.19;;;21.47;73.31
5952;BME280;3001;42.622;23.194;2023-09-08T01:20:46;91802.84;;;21.42;73.54
5952;BME280;3001;42.622;23.194;2023-09-08T01:23:18;91792.91;;;21.36;75.23
5952;BME280;3001;42.622;23.194;2023-09-08T01:25:51;91793.72;;;21.40;74.61
5952;BME280;3001;42.622;23.194;2023-09-08T01:28:19;91799.91;;;21.47;75.62
5952;BME280;3001;42.622;23.194;2023-09-08T01:30:47;91790.91;;;21.52;75.91
5952;BME280;3001;42.622;23.194;2023-09-08T01:33:15;91794.38;;;21.56;76.48
5952;BME280;3001;42.622;23.194;2023-09-08T01:35:42;91793.72;;;21.40;75.88
5952;BME280;3001;42.622;23.194;2023-09-08T01:38:09;91792.44;;;21.53;75.93
5952;BME280;3001;42.622;23.194;2023-09-08T01:40:36;91786.09;;;21.35;77.63
5952;BME280;3001;42.622;23.194;2023-09-08T01:43:05;91787.72;;;21.43;76.61
5952;BME280;3001;42.622;23.194;2023-09-08T01:45:31;91785.53;;;21.45;76.48
5952;BME280;3001;42.622;23.194;2023-09-08T01:47:58;91783.56;;;21.42;74.97
5952;BME280;3001;42.622;23.194;2023-09-08T01:50:25;91785.09;;;21.43;75.23
5952;BME280;3001;42.622;23.194;2023-09-08T01:52:51;91792.28;;;21.42;75.78
5952;BME280;3001;42.622;23.194;2023-09-08T01:55:18;91790.16;;;21.29;76.44
5952;BME280;3001;42.622;23.194;2023-09-08T01:57:45;91785.81;;;21.40;76.70
5952;BME280;3001;42.622;23.194;2023-09-08T02:00:15;91787.88;;;21.50;75.72
5952;BME280;3001;42.622;23.194;2023-09-08T02:02:41;91778.28;;;21.42;76.14
5952;BME280;3001;42.622;23.194;2023-09-08T02:05:08;91781.63;;;21.39;76.47
5952;BME280;3001;42.622;23.194;2023-09-08T02:07:35;91774.66;;;21.27;76.82
5952;BME280;3001;42.622;23.194;2023-09-08T02:10:02;91785.03;;;21.17;78.08
5952;BME280;3001;42.622;23.194;2023-09-08T02:12:28;91778.34;;;21.23;77.69
5952;BME280;3001;42.622;23.194;2023-09-08T02:14:55;91783.69;;;21.26;77.33
5952;BME280;3001;42.622;23.194;2023-09-08T02:17:23;91782.41;;;21.17;78.52
5952;BME280;3001;42.622;23.194;2023-09-08T02:19:50;91776.41;;;21.20;79.10
5952;BME280;3001;42.622;23.194;2023-09-08T02:22:17;91778.66;;;21.18;79.35
5952;BME280;3001;42.622;23.194;2023-09-08T02:24:44;91776.38;;;21.16;79.69
5952;BME280;3001;42.622;23.194;2023-09-08T02:27:11;91775.78;;;21.04;80.07
5952;BME280;3001;42.622;23.194;2023-09-08T02:29:38;91771.84;;;20.95;80.06
5952;BME280;3001;42.622;23.194;2023-09-08T02:32:05;91769.94;;;20.95;80.01
5952;BME280;3001;42.622;23.194;2023-09-08T02:34:35;91773.81;;;21.01;80.24
5952;BME280;3001;42.622;23.194;2023-09-08T02:37:03;91768.00;;;20.92;80.85
5952;BME280;3001;42.622;23.194;2023-09-08T02:39:29;91763.34;;;20.86;81.52
5952;BME280;3001;42.622;23.194;2023-09-08T02:41:56;91762.44;;;20.78;81.71
5952;BME280;3001;42.622;23.194;2023-09-08T02:44:23;91766.78;;;20.67;81.88
5952;BME280;3001;42.622;23.194;2023-09-08T02:46:50;91760.63;;;20.82;81.65
5952;BME280;3001;42.622;23.194;2023-09-08T02:49:17;91764.34;;;20.78;81.74
5952;BME280;3001;42.622;23.194;2023-09-08T02:51:45;91769.00;;;20.65;82.85
5952;BME280;3001;42.622;23.194;2023-09-08T02:54:12;91756.44;;;20.59;82.52
5952;BME280;3001;42.622;23.194;2023-09-08T02:56:38;91761.28;;;20.57;82.69
5952;BME280;3001;42.622;23.194;2023-09-08T02:59:05;91750.06;;;20.41;83.84
5952;BME280;3001;42.622;23.194;2023-09-08T03:01:32;91756.22;;;20.48;83.84
5952;BME280;3001;42.622;23.194;2023-09-08T03:03:59;91755.81;;;20.46;83.79
5952;BME280;3001;42.622;23.194;2023-09-08T03:06:26;91756.16;;;20.26;84.76
5952;BME280;3001;42.622;23.194;2023-09-08T03:08:54;91762.75;;;20.16;85.61
5952;BME280;3001;42.622;23.194;2023-09-08T03:11:20;91750.91;;;19.91;87.18
5952;BME280;3001;42.622;23.194;2023-09-08T03:13:47;91757.63;;;19.89;87.51
5952;BME280;3001;42.622;23.194;2023-09-08T03:16:13;91748.47;;;19.83;87.83
5952;BME280;3001;42.622;23.194;2023-09-08T03:18:41;91747.19;;;19.77;88.69
5952;BME280;3001;42.622;23.194;2023-09-08T03:21:08;91746.50;;;19.80;88.70
5952;BME280;3001;42.622;23.194;2023-09-08T03:23:37;91741.16;;;19.76;89.05
5952;BME280;3001;42.622;23.194;2023-09-08T03:26:06;91749.75;;;19.73;89.94
5952;BME280;3001;42.622;23.194;2023-09-08T03:28:34;91733.06;;;19.50;90.72
5952;BME280;3001;42.622;23.194;2023-09-08T03:31:01;91757.34;;;19.59;91.60
5952;BME280;3001;42.622;23.194;2023-09-08T03:33:28;91750.56;;;19.43;92.18
5952;BME280;3001;42.622;23.194;2023-09-08T03:35:54;91744.56;;;19.42;92.68
5952;BME280;3001;42.622;23.194;2023-09-08T03:38:21;91754.84;;;19.32;93.31
5952;BME280;3001;42.622;23.194;2023-09-08T03:40:48;91752.31;;;19.20;94.30
5952;BME280;3001;42.622;23.194;2023-09-08T03:43:16;91759.88;;;19.22;94.59
5952;BME280;3001;42.622;23.194;2023-09-08T03:45:43;91759.50;;;19.23;94.64
5952;BME280;3001;42.622;23.194;2023-09-08T03:48:10;91757.72;;;19.27;94.73
5952;BME280;3001;42.622;23.194;2023-09-08T03:50:36;91757.31;;;19.25;95.14
5952;BME280;3001;42.622;23.194;2023-09-08T03:53:03;91759.09;;;19.21;95.20
5952;BME280;3001;42.622;23.194;2023-09-08T03:55:30;91757.47;;;19.17;95.60
5952;BME280;3001;42.622;23.194;2023-09-08T03:57:57;91752.44;;;19.12;95.58
5952;BME280;3001;42.622;23.194;2023-09-08T04:00:25;91752.88;;;19.14;95.56
5952;BME280;3001;42.622;23.194;2023-09-08T04:02:52;91757.19;;;19.06;95.68
5952;BME280;3001;42.622;23.194;2023-09-08T04:05:19;91757.44;;;19.01;96.13
5952;BME280;3001;42.622;23.194;2023-09-08T04:07:46;91748.59;;;18.94;95.23
5952;BME280;3001;42.622;23.194;2023-09-08T04:10:12;91765.44;;;19.05;95.21
5952;BME280;3001;42.622;23.194;2023-09-08T04:12:40;91760.25;;;18.93;95.84
5952;BME280;3001;42.622;23.194;2023-09-08T04:15:07;91771.38;;;18.86;96.30
5952;BME280;3001;42.622;23.194;2023-09-08T04:17:36;91771.63;;;18.97;95.34
5952;BME280;3001;42.622;23.194;2023-09-08T04:20:03;91771.03;;;18.88;95.55
5952;BME280;3001;42.622;23.194;2023-09-08T04:22:31;91776.19;;;18.69;95.58
5952;BME280;3001;42.622;23.194;2023-09-08T04:24:58;91777.69;;;18.54;95.62
5952;BME280;3001;42.622;23.194;2023-09-08T04:27:24;91788.06;;;18.63;96.03
5952;BME280;3001;42.622;23.194;2023-09-08T04:29:51;91788.56;;;18.68;96.22
5952;BME280;3001;42.622;23.194;2023-09-08T04:32:18;91785.97;;;18.84;95.72
5952;BME280;3001;42.622;23.194;2023-09-08T04:34:46;91796.09;;;18.82;95.12
5952;BME280;3001;42.622;23.194;2023-09-08T04:37:14;91800.75;;;18.88;95.24
5952;BME280;3001;42.622;23.194;2023-09-08T04:39:41;91806.72;;;19.01;94.66
5952;BME280;3001;42.622;23.194;2023-09-08T04:42:07;91813.69;;;19.09;93.97
5952;BME280;3001;42.622;23.194;2023-09-08T04:44:34;91810.53;;;19.03;94.27
5952;BME280;3001;42.622;23.194;2023-09-08T04:47:01;91806.59;;;19.25;93.55
5952;BME280;3001;42.622;23.194;2023-09-08T04:49:27;91805.34;;;19.34;93.29
5952;BME280;3001;42.622;23.194;2023-09-08T04:51:56;91812.03;;;19.16;94.19
5952;BME280;3001;42.622;23.194;2023-09-08T04:54:23;91807.06;;;19.15;95.20
5952;BME280;3001;42.622;23.194;2023-09-08T04:56:52;91814.53;;;19.13;95.76
5952;BME280;3001;42.622;23.194;2023-09-08T04:59:19;91804.66;;;19.22;96.07
5952;BME280;3001;42.622;23.194;2023-09-08T05:01:46;91806.19;;;19.38;95.54
5952;BME280;3001;42.622;23.194;2023-09-08T05:04:12;91807.19;;;19.18;96.50
5952;BME280;3001;42.622;23.194;2023-09-08T05:06:39;91807.13;;;19.30;97.13
5952;BME280;3001;42.622;23.194;2023-09-08T05:09:07;91805.91;;;19.27;97.34
5952;BME280;3001;42.622;23.194;2023-09-08T05:11:34;91809.66;;;19.27;97.58
5952;BME280;3001;42.622;23.194;2023-09-08T05:14:00;91798.00;;;19.12;97.92
5952;BME280;3001;42.622;23.194;2023-09-08T05:16:27;91797.31;;;19.15;98.14
5952;BME280;3001;42.622;23.194;2023-09-08T05:19:04;91798.19;;;19.19;98.09
5952;BME280;3001;42.622;23.194;2023-09-08T05:21:32;91795.69;;;19.11;98.91
5952;BME280;3001;42.622;23.194;2023-09-08T05:23:58;91799.38;;;19.37;98.54
5952;BME280;3001;42.622;23.194;2023-09-08T05:26:26;91807.44;;;19.28;98.25
5952;BME280;3001;42.622;23.194;2023-09-08T05:28:53;91804.22;;;19.35;97.85
5952;BME280;3001;42.622;23.194;2023-09-08T05:31:20;91811.78;;;19.52;97.40
5952;BME280;3001;42.622;23.194;2023-09-08T05:33:47;91812.81;;;19.47;98.99
5952;BME280;3001;42.622;23.194;2023-09-08T05:36:14;91807.78;;;19.27;99.66
5952;BME280;3001;42.622;23.194;2023-09-08T05:38:40;91805.81;;;19.24;99.48
5952;BME280;3001;42.622;23.194;2023-09-08T05:41:07;91812.19;;;19.23;99.46
5952;BME280;3001;42.622;23.194;2023-09-08T05:43:35;91810.19;;;19.32;99.13
5952;BME280;3001;42.622;23.194;2023-09-08T05:46:02;91817.91;;;19.40;98.39
5952;BME280;3001;42.622;23.194;2023-09-08T05:48:29;91809.63;;;19.11;100.00
5952;BME280;3001;42.622;23.194;2023-09-08T05:50:56;91816.72;;;19.38;98.69
5952;BME280;3001;42.622;23.194;2023-09-08T05:53:22;91815.00;;;19.61;96.70
5952;BME280;3001;42.622;23.194;2023-09-08T05:55:49;91811.69;;;19.48;97.08
5952;BME280;3001;42.622;23.194;2023-09-08T05:58:16;91817.31;;;19.31;98.27
5952;BME280;3001;42.622;23.194;2023-09-08T06:00:44;91813.31;;;19.37;97.92
5952;BME280;3001;42.622;23.194;2023-09-08T06:03:11;91814.09;;;19.38;97.33
5952;BME280;3001;42.622;23.194;2023-09-08T06:05:37;91814.66;;;19.31;96.81
5952;BME280;3001;42.622;23.194;2023-09-08T06:08:04;91817.91;;;19.40;95.44
5952;BME280;3001;42.622;23.194;2023-09-08T06:10:31;91809.22;;;19.40;96.07
5952;BME280;3001;42.622;23.194;2023-09-08T06:12:58;91806.09;;;19.34;95.19
5952;BME280;3001;42.622;23.194;2023-09-08T06:15:24;91813.06;;;19.42;94.12
5952;BME280;3001;42.622;23.194;2023-09-08T06:17:52;91811.16;;;19.58;93.94
5952;BME280;3001;42.622;23.194;2023-09-08T06:20:19;91812.03;;;19.62;92.80
5952;BME280;3001;42.622;23.194;2023-09-08T06:22:46;91810.25;;;19.66;91.23
5952;BME280;3001;42.622;23.194;2023-09-08T06:25:13;91820.78;;;19.66;91.79
5952;BME280;3001;42.622;23.194;2023-09-08T06:27:40;91819.31;;;19.69;90.61
5952;BME280;3001;42.622;23.194;2023-09-08T06:30:07;91820.38;;;19.64;90.90
5952;BME280;3001;42.622;23.194;2023-09-08T06:32:34;91831.16;;;19.75;90.16
5952;BME280;3001;42.622;23.194;2023-09-08T06:35:03;91828.75;;;19.70;89.65
5952;BME280;3001;42.622;23.194;2023-09-08T06:37:35;91837.34;;;19.82;88.51
5952;BME280;3001;42.622;23.194;2023-09-08T06:40:01;91837.06;;;20.03;88.32
5952;BME280;3001;42.622;23.194;2023-09-08T06:42:28;91843.28;;;20.10;86.74
5952;BME280;3001;42.622;23.194;2023-09-08T06:44:55;91846.00;;;20.14;85.12
5952;BME280;3001;42.622;23.194;2023-09-08T06:47:21;91846.03;;;20.33;84.13
5952;BME280;3001;42.622;23.194;2023-09-08T06:49:48;91844.66;;;20.39;84.67
5952;BME280;3001;42.622;23.194;2023-09-08T06:52:16;91852.91;;;20.56;82.10
5952;BME280;3001;42.622;23.194;2023-09-08T06:54:43;91845.19;;;20.48;80.77
5952;BME280;3001;42.622;23.194;2023-09-08T06:57:11;91856.56;;;20.86;82.09
5952;BME280;3001;42.622;23.194;2023-09-08T06:59:37;91866.69;;;20.65;80.91
5952;BME280;3001;42.622;23.194;2023-09-08T07:02:04;91854.09;;;20.59;83.11
5952;BME280;3001;42.622;23.194;2023-09-08T07:04:31;91850.28;;;20.56;81.71
5952;BME280;3001;42.622;23.194;2023-09-08T07:06:58;91865.09;;;20.61;82.40
5952;BME280;3001;42.622;23.194;2023-09-08T07:09:30;91862.56;;;20.83;81.30
5952;BME280;3001;42.622;23.194;2023-09-08T07:11:57;91856.28;;;20.91;80.80
5952;BME280;3001;42.622;23.194;2023-09-08T07:14:23;91871.16;;;20.99;79.61
5952;BME280;3001;42.622;23.194;2023-09-08T07:16:50;91867.81;;;21.02;79.92
5952;BME280;3001;42.622;23.194;2023-09-08T07:19:17;91864.19;;;21.10;78.71
5952;BME280;3001;42.622;23.194;2023-09-08T07:21:43;91857.91;;;21.18;78.41
5952;BME280;3001;42.622;23.194;2023-09-08T07:24:10;91858.34;;;21.42;78.12
5952;BME280;3001;42.622;23.194;2023-09-08T07:26:38;91862.34;;;21.33;77.50
5952;BME280;3001;42.622;23.194;2023-09-08T07:29:05;91862.63;;;21.50;79.08
5952;BME280;3001;42.622;23.194;2023-09-08T07:31:32;91864.25;;;21.55;77.49
5952;BME280;3001;42.622;23.194;2023-09-08T07:33:58;91857.69;;;21.68;77.81
5952;BME280;3001;42.622;23.194;2023-09-08T07:36:25;91859.22;;;21.69;75.21
5952;BME280;3001;42.622;23.194;2023-09-08T07:38:52;91863.72;;;21.68;75.83
5952;BME280;3001;42.622;23.194;2023-09-08T07:41:18;91869.59;;;22.03;76.32
5952;BME280;3001;42.622;23.194;2023-09-08T07:43:46;91864.38;;;22.10;78.41
5952;BME280;3001;42.622;23.194;2023-09-08T07:46:13;91863.56;;;22.06;77.58
5952;BME280;3001;42.622;23.194;2023-09-08T07:48:40;91866.84;;;22.22;74.84
5952;BME280;3001;42.622;23.194;2023-09-08T07:51:06;91865.31;;;22.21;75.80
5952;BME280;3001;42.622;23.194;2023-09-08T07:53:33;91861.44;;;22.15;75.32
5952;BME280;3001;42.622;23.194;2023-09-08T07:56:00;91850.97;;;21.96;75.88
5952;BME280;3001;42.622;23.194;2023-09-08T07:58:26;91879.22;;;21.92;75.38
5952;BME280;3001;42.622;23.194;2023-09-08T08:00:54;91870.28;;;22.00;74.61
5952;BME280;3001;42.622;23.194;2023-09-08T08:03:21;91863.88;;;22.01;74.74
5952;BME280;3001;42.622;23.194;2023-09-08T08:05:48;91859.25;;;21.95;76.77
5952;BME280;3001;42.622;23.194;2023-09-08T08:08:14;91859.72;;;22.00;76.29
5952;BME280;3001;42.622;23.194;2023-09-08T08:10:41;91862.00;;;22.02;75.76
5952;BME280;3001;42.622;23.194;2023-09-08T08:13:08;91870.41;;;22.07;74.11
5952;BME280;3001;42.622;23.194;2023-09-08T08:15:35;91872.84;;;22.19;75.02
5952;BME280;3001;42.622;23.194;2023-09-08T08:18:04;91874.56;;;22.34;75.71
5952;BME280;3001;42.622;23.194;2023-09-08T08:20:31;91854.91;;;22.35;72.89
5952;BME280;3001;42.622;23.194;2023-09-08T08:23:00;91883.88;;;22.47;73.65
5952;BME280;3001;42.622;23.194;2023-09-08T08:25:27;91882.00;;;22.48;71.41
5952;BME280;3001;42.622;23.194;2023-09-08T08:27:54;91879.44;;;22.32;68.65
5952;BME280;3001;42.622;23.194;2023-09-08T08:30:21;91868.88;;;22.58;73.48
5952;BME280;3001;42.622;23.194;2023-09-08T08:32:48;91871.09;;;22.56;74.97
5952;BME280;3001;42.622;23.194;2023-09-08T08:35:17;91884.41;;;22.60;74.86
5952;BME280;3001;42.622;23.194;2023-09-08T08:37:44;91884.59;;;22.74;72.67
5952;BME280;3001;42.622;23.194;2023-09-08T08:40:11;91889.56;;;22.79;68.00
5952;BME280;3001;42.622;23.194;2023-09-08T08:42:38;91883.53;;;22.78;65.54
5952;BME280;3001;42.622;23.194;2023-09-08T08:45:06;91876.69;;;22.77;69.17
5952;BME280;3001;42.622;23.194;2023-09-08T08:47:33;91877.44;;;22.78;69.20
5952;BME280;3001;42.622;23.194;2023-09-08T08:50:01;91871.09;;;22.82;69.60
5952;BME280;3001;42.622;23.194;2023-09-08T08:52:31;91876.72;;;22.81;68.20
5952;BME280;3001;42.622;23.194;2023-09-08T08:54:59;91869.63;;;22.88;71.14
5952;BME280;3001;42.622;23.194;2023-09-08T08:57:26;91870.72;;;22.84;70.33
5952;BME280;3001;42.622;23.194;2023-09-08T08:59:54;91862.59;;;23.02;68.65
5952;BME280;3001;42.622;23.194;2023-09-08T09:02:21;91864.22;;;23.10;70.95
5952;BME280;3001;42.622;23.194;2023-09-08T09:04:48;91869.63;;;23.17;70.57
5952;BME280;3001;42.622;23.194;2023-09-08T09:07:18;91862.44;;;23.18;71.63
5952;BME280;3001;42.622;23.194;2023-09-08T09:09:46;91866.81;;;23.36;70.22
5952;BME280;3001;42.622;23.194;2023-09-08T09:12:13;91862.22;;;23.33;69.02
5952;BME280;3001;42.622;23.194;2023-09-08T09:14:45;91865.31;;;23.39;70.22
5952;BME280;3001;42.622;23.194;2023-09-08T09:17:13;91864.75;;;23.59;67.16
5952;BME280;3001;42.622;23.194;2023-09-08T09:19:40;91860.91;;;23.57;60.02
5952;BME280;3001;42.622;23.194;2023-09-08T09:22:07;91876.53;;;23.65;57.26
5952;BME280;3001;42.622;23.194;2023-09-08T09:24:35;91868.38;;;23.81;60.89
5952;BME280;3001;42.622;23.194;2023-09-08T09:27:05;91855.75;;;24.14;60.53
5952;BME280;3001;42.622;23.194;2023-09-08T09:29:32;91867.69;;;24.41;63.68
5952;BME280;3001;42.622;23.194;2023-09-08T09:32:03;91860.88;;;24.47;61.98
5952;BME280;3001;42.622;23.194;2023-09-08T09:34:31;91848.91;;;24.71;61.32
5952;BME280;3001;42.622;23.194;2023-09-08T09:36:58;91864.03;;;24.56;61.47
5952;BME280;3001;42.622;23.194;2023-09-08T09:39:26;91858.03;;;24.70;58.98
5952;BME280;3001;42.622;23.194;2023-09-08T09:41:53;91861.09;;;24.75;57.63
5952;BME280;3001;42.622;23.194;2023-09-08T09:44:22;91862.25;;;24.81;59.40
5952;BME280;3001;42.622;23.194;2023-09-08T09:46:52;91863.41;;;24.87;58.96
5952;BME280;3001;42.622;23.194;2023-09-08T09:49:19;91856.56;;;24.83;58.30
5952;BME280;3001;42.622;23.194;2023-09-08T09:51:47;91863.81;;;24.85;53.69
5952;BME280;3001;42.622;23.194;2023-09-08T09:54:16;91846.41;;;25.09;56.37
5952;BME280;3001;42.622;23.194;2023-09-08T09:56:43;91850.97;;;25.08;58.78
5952;BME280;3001;42.622;23.194;2023-09-08T09:59:13;91843.44;;;25.28;58.44
5952;BME280;3001;42.622;23.194;2023-09-08T10:01:41;91835.13;;;25.40;59.41
5952;BME280;3001;42.622;23.194;2023-09-08T10:04:09;91847.69;;;25.46;58.34
5952;BME280;3001;42.622;23.194;2023-09-08T10:06:37;91830.97;;;25.49;59.64
5952;BME280;3001;42.622;23.194;2023-09-08T10:09:05;91830.97;;;25.46;60.28
5952;BME280;3001;42.622;23.194;2023-09-08T10:11:36;91835.50;;;25.31;57.57
5952;BME280;3001;42.622;23.194;2023-09-08T10:14:07;91823.38;;;25.44;58.81
5952;BME280;3001;42.622;23.194;2023-09-08T10:16:38;91819.56;;;25.42;60.25
5952;BME280;3001;42.622;23.194;2023-09-08T10:19:08;91818.81;;;25.73;58.05
5952;BME280;3001;42.622;23.194;2023-09-08T10:21:39;91813.47;;;25.52;58.89
5952;BME280;3001;42.622;23.194;2023-09-08T10:24:13;91808.94;;;25.59;59.50
5952;BME280;3001;42.622;23.194;2023-09-08T10:26:43;91809.72;;;25.74;57.24
5952;BME280;3001;42.622;23.194;2023-09-08T10:29:11;91816.22;;;25.90;58.19
5952;BME280;3001;42.622;23.194;2023-09-08T10:31:39;91803.28;;;26.06;58.56
5952;BME280;3001;42.622;23.194;2023-09-08T10:34:08;91802.44;;;26.34;56.94
5952;BME280;3001;42.622;23.194;2023-09-08T10:36:35;91813.47;;;26.46;55.71
5952;BME280;3001;42.622;23.194;2023-09-08T10:39:29;91807.72;;;26.68;55.90
5952;BME280;3001;42.622;23.194;2023-09-08T10:42:22;91803.09;;;26.90;55.30
5952;BME280;3001;42.622;23.194;2023-09-08T10:45:01;91796.91;;;27.14;54.39
5952;BME280;3001;42.622;23.194;2023-09-08T10:47:41;91786.22;;;27.14;54.95
5952;BME280;3001;42.622;23.194;2023-09-08T10:50:15;91791.34;;;27.52;51.60
5952;BME280;3001;42.622;23.194;2023-09-08T10:52:42;91795.00;;;27.79;51.93
5952;BME280;3001;42.622;23.194;2023-09-08T10:55:11;91787.31;;;27.85;51.77
5952;BME280;3001;42.622;23.194;2023-09-08T10:57:37;91790.06;;;27.74;50.30
5952;BME280;3001;42.622;23.194;2023-09-08T11:00:05;91780.94;;;27.72;51.06
5952;BME280;3001;42.622;23.194;2023-09-08T11:02:38;91779.09;;;27.58;50.44
5952;BME280;3001;42.622;23.194;2023-09-08T11:05:07;91779.78;;;27.69;52.30
5952;BME280;3001;42.622;23.194;2023-09-08T11:07:37;91779.34;;;27.81;51.78
5952;BME280;3001;42.622;23.194;2023-09-08T11:10:04;91781.94;;;27.88;52.80
5952;BME280;3001;42.622;23.194;2023-09-08T11:12:32;91777.56;;;28.08;49.28
5952;BME280;3001;42.622;23.194;2023-09-08T11:14:59;91778.53;;;28.32;50.56
5952;BME280;3001;42.622;23.194;2023-09-08T11:17:27;91771.53;;;28.01;50.48
5952;BME280;3001;42.622;23.194;2023-09-08T11:19:54;91776.41;;;28.09;51.90
5952;BME280;3001;42.622;23.194;2023-09-08T11:22:22;91779.06;;;28.13;50.50
5952;BME280;3001;42.622;23.194;2023-09-08T11:24:52;91773.09;;;27.98;50.63
5952;BME280;3001;42.622;23.194;2023-09-08T11:27:22;91787.53;;;28.04;51.31
5952;BME280;3001;42.622;23.194;2023-09-08T11:29:49;91776.09;;;27.53;52.47
5952;BME280;3001;42.622;23.194;2023-09-08T11:32:16;91776.44;;;27.58;51.98
5952;BME280;3001;42.622;23.194;2023-09-08T11:34:43;91771.94;;;27.45;53.27
5952;BME280;3001;42.622;23.194;2023-09-08T11:37:10;91765.50;;;27.39;53.38
5952;BME280;3001;42.622;23.194;2023-09-08T11:39:38;91777.94;;;27.59;53.56
5952;BME280;3001;42.622;23.194;2023-09-08T11:42:07;91770.03;;;27.49;50.46
5952;BME280;3001;42.622;23.194;2023-09-08T11:44:35;91768.03;;;27.56;51.29
5952;BME280;3001;42.622;23.194;2023-09-08T11:47:02;91766.06;;;27.71;52.26
5952;BME280;3001;42.622;23.194;2023-09-08T11:49:33;91771.00;;;27.72;54.23
5952;BME280;3001;42.622;23.194;2023-09-08T11:52:00;91763.75;;;27.73;53.26
5952;BME280;3001;42.622;23.194;2023-09-08T11:54:27;91762.41;;;27.98;52.16
5952;BME280;3001;42.622;23.194;2023-09-08T11:56:55;91773.88;;;27.95;49.96
5952;BME280;3001;42.622;23.194;2023-09-08T11:59:23;91777.16;;;28.13;51.28
5952;BME280;3001;42.622;23.194;2023-09-08T12:01:51;91774.72;;;28.29;51.13
5952;BME280;3001;42.622;23.194;2023-09-08T12:04:18;91767.84;;;28.32;52.35
5952;BME280;3001;42.622;23.194;2023-09-08T12:06:45;91756.38;;;28.31;52.29
5952;BME280;3001;42.622;23.194;2023-09-08T12:09:13;91769.38;;;28.33;52.83
5952;BME280;3001;42.622;23.194;2023-09-08T12:11:41;91764.41;;;28.28;52.57
5952;BME280;3001;42.622;23.194;2023-09-08T12:14:11;91758.69;;;28.33;51.88
5952;BME280;3001;42.622;23.194;2023-09-08T12:16:40;91763.59;;;28.34;52.28
5952;BME280;3001;42.622;23.194;2023-09-08T12:19:07;91760.13;;;28.37;49.71
5952;BME280;3001;42.622;23.194;2023-09-08T12:21:53;91753.59;;;28.42;49.87
5952;BME280;3001;42.622;23.194;2023-09-08T12:24:47;91753.97;;;28.44;51.22
5952;BME280;3001;42.622;23.194;2023-09-08T12:27:14;91761.25;;;28.40;50.86
5952;BME280;3001;42.622;23.194;2023-09-08T12:29:41;91752.78;;;28.48;46.10
5952;BME280;3001;42.622;23.194;2023-09-08T12:32:09;91756.06;;;28.59;48.00
5952;BME280;3001;42.622;23.194;2023-09-08T12:34:36;91749.66;;;28.53;51.27
5952;BME280;3001;42.622;23.194;2023-09-08T12:37:03;91748.00;;;28.66;51.10
5952;BME280;3001;42.622;23.194;2023-09-08T12:39:32;91744.16;;;28.67;49.96
5952;BME280;3001;42.622;23.194;2023-09-08T12:41:59;91742.63;;;28.69;50.92
5952;BME280;3001;42.622;23.194;2023-09-08T12:44:26;91742.44;;;28.83;50.14
5952;BME280;3001;42.622;23.194;2023-09-08T12:46:53;91734.47;;;28.80;50.63
5952;BME280;3001;42.622;23.194;2023-09-08T12:49:21;91739.19;;;28.65;50.28
5952;BME280;3001;42.622;23.194;2023-09-08T12:51:47;91741.63;;;28.53;48.93
5952;BME280;3001;42.622;23.194;2023-09-08T12:54:14;91742.94;;;28.38;49.27
5952;BME280;3001;42.622;23.194;2023-09-08T12:56:41;91752.53;;;28.36;49.11
5952;BME280;3001;42.622;23.194;2023-09-08T12:59:07;91750.56;;;28.40;48.58
5952;BME280;3001;42.622;23.194;2023-09-08T13:01:34;91752.19;;;28.30;49.10
5952;BME280;3001;42.622;23.194;2023-09-08T13:04:01;91749.91;;;28.29;49.47
5952;BME280;3001;42.622;23.194;2023-09-08T13:06:29;91754.38;;;28.42;48.55
5952;BME280;3001;42.622;23.194;2023-09-08T13:08:57;91743.63;;;28.46;48.42
5952;BME280;3001;42.622;23.194;2023-09-08T13:11:24;91739.78;;;28.47;50.39
5952;BME280;3001;42.622;23.194;2023-09-08T13:13:51;91743.47;;;28.59;47.22